Time;durP1;ratioP1;P1;durP2;ratioP2;P2;SDS_P1;SDS_P2;PMS_P1;PMS_P2;Temp;Humidity;BMP_temperature;BMP_pressure;BME280_temperature;BME280_humidity;BME280_pressure;Samples;Min_cycle;Max_cycle;Signal;HPM_P1;HPM_P2
2021/01/23 00:00:34;;;;;;;2.63;1.40;;;5.00;88.20;;;;;;4880388;29;20386;-72
2021/01/23 00:03:00;;;;;;;2.80;1.40;;;5.00;88.30;;;;;;4892647;29;20035;-74
2021/01/23 00:05:25;;;;;;;3.23;1.80;;;5.00;88.30;;;;;;4889160;29;20457;-72
2021/01/23 00:07:51;;;;;;;2.10;1.30;;;5.00;88.20;;;;;;4889944;29;20419;-74
2021/01/23 00:10:17;;;;;;;3.00;1.40;;;5.00;88.30;;;;;;4897454;29;20487;-72
2021/01/23 00:12:42;;;;;;;2.60;1.60;;;5.00;88.30;;;;;;4894553;29;20033;-72
2021/01/23 00:15:09;;;;;;;3.00;1.40;;;5.00;88.50;;;;;;4886241;29;20076;-72
2021/01/23 00:17:35;;;;;;;2.13;1.30;;;5.00;88.30;;;;;;4881723;29;20079;-72
2021/01/23 00:20:02;;;;;;;1.40;1.20;;;5.00;88.30;;;;;;4862255;29;20439;-73
2021/01/23 00:22:28;;;;;;;1.47;0.97;;;5.00;88.50;;;;;;4859086;29;20396;-72
2021/01/23 00:24:53;;;;;;;1.83;1.00;;;4.90;88.30;;;;;;4860239;29;20040;-72
2021/01/23 00:27:19;;;;;;;1.40;0.93;;;4.90;88.50;;;;;;4858047;29;20053;-72
2021/01/23 00:29:45;;;;;;;2.80;1.20;;;5.00;88.20;;;;;;4858556;29;20026;-73
2021/01/23 00:32:10;;;;;;;1.60;1.10;;;5.00;88.10;;;;;;4858291;29;20037;-72
2021/01/23 00:34:36;;;;;;;1.87;1.10;;;5.00;87.90;;;;;;4858750;29;20490;-72
2021/01/23 00:37:02;;;;;;;2.17;0.90;;;5.00;88.00;;;;;;4858349;29;20040;-75
2021/01/23 00:39:27;;;;;;;2.63;0.90;;;5.00;87.80;;;;;;4869669;29;20120;-72
2021/01/23 00:41:53;;;;;;;1.90;1.20;;;5.00;87.50;;;;;;4876840;29;20033;-72
2021/01/23 00:44:18;;;;;;;0.80;0.80;;;5.00;87.40;;;;;;4876264;29;20097;-72
2021/01/23 00:46:44;;;;;;;1.33;0.80;;;5.00;87.70;;;;;;4877102;29;20032;-72
2021/01/23 00:49:10;;;;;;;1.37;0.83;;;5.00;87.90;;;;;;4877817;29;20555;-72
2021/01/23 00:51:35;;;;;;;1.07;0.70;;;4.90;87.70;;;;;;4891670;29;20053;-72
2021/01/23 00:54:01;;;;;;;1.23;0.83;;;4.80;87.80;;;;;;4891852;29;20032;-76
2021/01/23 00:56:27;;;;;;;1.07;0.70;;;4.80;87.90;;;;;;4878452;29;20107;-72
2021/01/23 00:58:52;;;;;;;0.53;0.53;;;4.70;88.60;;;;;;4878097;29;20475;-72
2021/01/23 01:01:18;;;;;;;1.10;0.80;;;4.70;88.40;;;;;;4876932;29;20565;-72
2021/01/23 01:03:44;;;;;;;1.33;0.80;;;4.60;88.40;;;;;;4877194;29;20049;-72
2021/01/23 01:06:10;;;;;;;1.30;0.90;;;4.60;88.40;;;;;;4875921;29;20085;-72
2021/01/23 01:08:35;;;;;;;1.03;0.70;;;4.50;88.70;;;;;;4892509;29;20033;-72
2021/01/23 01:11:01;;;;;;;1.40;0.80;;;4.50;89.10;;;;;;4876753;29;20119;-74
2021/01/23 01:13:27;;;;;;;1.50;1.10;;;4.50;88.90;;;;;;4877958;29;20456;-71
2021/01/23 01:15:52;;;;;;;1.60;1.10;;;4.50;89.20;;;;;;4882230;29;20025;-71
2021/01/23 01:18:18;;;;;;;1.30;1.00;;;4.50;89.30;;;;;;4895642;29;20028;-72
2021/01/23 01:20:44;;;;;;;2.57;1.20;;;4.50;88.90;;;;;;4882427;29;20420;-72
2021/01/23 01:23:09;;;;;;;3.80;2.40;;;4.50;89.10;;;;;;4880096;29;20049;-73
2021/01/23 01:25:35;;;;;;;4.17;2.50;;;4.50;89.20;;;;;;4890629;29;20079;-72
2021/01/23 01:28:01;;;;;;;4.37;2.53;;;4.50;89.60;;;;;;4898785;29;20084;-72
2021/01/23 01:30:26;;;;;;;4.90;2.60;;;4.40;89.50;;;;;;4882867;29;20032;-72
2021/01/23 01:32:52;;;;;;;3.97;2.40;;;4.40;89.10;;;;;;4899332;29;20033;-71
2021/01/23 01:35:17;;;;;;;3.77;2.37;;;4.30;88.60;;;;;;4898861;29;20521;-72
2021/01/23 01:37:44;;;;;;;3.87;2.43;;;4.30;89.30;;;;;;4887473;29;20033;-72
2021/01/23 01:40:10;;;;;;;3.63;2.37;;;4.30;89.00;;;;;;4895072;29;20463;-72
2021/01/23 01:42:36;;;;;;;4.77;2.80;;;4.20;89.20;;;;;;4895284;29;20032;-72
2021/01/23 01:45:03;;;;;;;4.93;2.70;;;4.20;89.30;;;;;;4880062;29;20037;-74
2021/01/23 01:47:29;;;;;;;3.13;2.17;;;4.10;89.80;;;;;;4879925;29;20033;-72
2021/01/23 01:49:57;;;;;;;3.53;2.50;;;4.10;89.90;;;;;;4894843;29;20104;-72
2021/01/23 01:52:23;;;;;;;3.83;2.10;;;4.00;90.10;;;;;;4888271;29;20060;-72
2021/01/23 01:54:50;;;;;;;2.73;1.90;;;4.00;90.00;;;;;;4886320;29;20119;-71
2021/01/23 01:57:20;;;;;;;3.83;2.50;;;4.00;90.20;;;;;;4902568;29;20030;-72
2021/01/23 01:59:45;;;;;;;3.73;2.23;;;4.00;90.30;;;;;;4861388;29;20029;-72
2021/01/23 02:02:41;;;;;;;2.93;2.30;;;4.00;90.30;;;;;;4891263;29;20118;-72
2021/01/23 02:05:14;;;;;;;3.20;1.97;;;3.90;90.40;;;;;;4860279;29;20097;-73
2021/01/23 02:08:01;;;;;;;4.63;2.27;;;4.00;90.40;;;;;;4884799;29;20028;-72
2021/01/23 02:10:50;;;;;;;3.63;2.10;;;4.00;90.40;;;;;;4860600;29;20124;-72
2021/01/23 02:13:25;;;;;;;3.80;2.47;;;3.90;90.50;;;;;;4878142;29;20028;-72
2021/01/23 02:16:14;;;;;;;3.90;2.33;;;4.00;90.50;;;;;;4885857;29;20072;-72
2021/01/23 02:18:42;;;;;;;3.20;2.10;;;4.00;90.50;;;;;;4868072;29;20032;-72
2021/01/23 02:21:17;;;;;;;5.90;2.67;;;4.00;90.50;;;;;;4890916;29;20044;-75
2021/01/23 02:23:45;;;;;;;3.30;2.20;;;4.00;90.60;;;;;;4911101;29;20040;-72
2021/01/23 02:26:59;;;;;;;4.00;2.47;;;4.00;90.50;;;;;;4883525;29;20032;-72
2021/01/23 02:30:17;;;;;;;4.20;2.50;;;4.00;90.50;;;;;;4804835;29;20039;-72
2021/01/23 02:32:48;;;;;;;5.17;2.63;;;3.90;90.50;;;;;;4723854;30;20063;-71
2021/01/23 02:35:16;;;;;;;3.67;2.60;;;3.90;90.60;;;;;;4801951;29;20125;-72
2021/01/23 02:37:43;;;;;;;4.67;2.83;;;3.90;90.70;;;;;;4805249;29;20035;-72
2021/01/23 02:40:10;;;;;;;5.50;3.17;;;3.90;90.60;;;;;;4804586;29;20039;-73
2021/01/23 02:42:36;;;;;;;6.07;3.33;;;3.80;90.50;;;;;;4790133;29;20117;-72
2021/01/23 02:45:04;;;;;;;5.93;3.60;;;3.90;90.50;;;;;;4789468;29;20175;-72
2021/01/23 02:47:30;;;;;;;5.57;2.90;;;3.90;90.50;;;;;;4804440;29;20122;-71
2021/01/23 02:49:56;;;;;;;4.97;3.43;;;3.90;90.50;;;;;;4804467;29;20176;-72
2021/01/23 02:52:50;;;;;;;7.50;3.90;;;3.90;90.50;;;;;;4813189;29;20050;-72
2021/01/23 02:55:20;;;;;;;7.57;3.90;;;3.90;90.50;;;;;;4822634;29;20125;-72
2021/01/23 02:57:48;;;;;;;7.87;4.13;;;3.90;90.40;;;;;;4811187;29;20042;-72
2021/01/23 03:00:16;;;;;;;9.57;4.70;;;3.90;90.50;;;;;;4859814;29;20059;-72
2021/01/23 03:02:53;;;;;;;8.33;4.47;;;3.90;90.40;;;;;;4900958;29;20050;-72
2021/01/23 03:05:22;;;;;;;8.87;4.07;;;3.90;90.60;;;;;;4908268;29;20077;-72
2021/01/23 03:07:52;;;;;;;7.63;4.47;;;3.90;90.60;;;;;;4911317;29;20060;-72
2021/01/23 03:10:17;;;;;;;6.93;4.33;;;3.90;90.50;;;;;;4916335;29;20024;-73
2021/01/23 03:12:43;;;;;;;7.43;4.53;;;3.90;90.50;;;;;;4902599;29;20488;-72
2021/01/23 03:15:09;;;;;;;8.60;5.23;;;3.90;90.60;;;;;;4900364;29;20614;-73
2021/01/23 03:17:35;;;;;;;9.97;4.83;;;3.90;90.50;;;;;;4900755;29;20028;-71
2021/01/23 03:20:01;;;;;;;8.57;4.43;;;3.90;90.60;;;;;;4900254;29;20055;-72
2021/01/23 03:22:27;;;;;;;9.60;5.20;;;3.90;90.50;;;;;;4906987;29;20204;-72
2021/01/23 03:24:53;;;;;;;8.17;4.17;;;3.90;90.40;;;;;;4881974;29;20549;-72
2021/01/23 03:27:18;;;;;;;10.73;4.67;;;3.80;90.50;;;;;;4881098;29;20483;-72
2021/01/23 03:29:44;;;;;;;9.37;4.70;;;3.80;90.60;;;;;;4893501;29;20474;-73
2021/01/23 03:32:09;;;;;;;7.13;4.70;;;3.80;90.60;;;;;;4894043;29;20041;-74
2021/01/23 03:34:35;;;;;;;10.03;5.13;;;3.80;90.60;;;;;;4901402;29;20027;-72
2021/01/23 03:37:01;;;;;;;10.30;5.10;;;3.80;90.70;;;;;;4917068;29;20020;-72
2021/01/23 03:39:27;;;;;;;11.87;5.37;;;3.70;90.70;;;;;;4899829;29;20656;-72
2021/01/23 03:41:52;;;;;;;9.50;5.30;;;3.70;90.80;;;;;;4900207;29;20419;-72
2021/01/23 03:44:18;;;;;;;9.70;5.43;;;3.70;90.80;;;;;;4883432;29;20092;-72
2021/01/23 03:46:44;;;;;;;9.67;5.07;;;3.70;90.90;;;;;;4901930;29;20031;-72
2021/01/23 03:49:09;;;;;;;10.97;5.20;;;3.60;90.90;;;;;;4916727;29;20028;-73
2021/01/23 03:51:35;;;;;;;9.83;4.60;;;3.60;91.00;;;;;;4899914;29;20028;-72
2021/01/23 03:54:00;;;;;;;9.40;5.30;;;3.60;91.00;;;;;;4900167;29;20059;-72
2021/01/23 03:56:26;;;;;;;9.37;5.50;;;3.60;91.10;;;;;;4884181;29;20025;-71
2021/01/23 03:58:52;;;;;;;10.30;5.47;;;3.60;91.10;;;;;;4900305;29;20485;-72
2021/01/23 04:01:17;;;;;;;8.77;4.97;;;3.60;91.10;;;;;;4898477;29;20024;-72
2021/01/23 04:03:43;;;;;;;10.83;5.37;;;3.60;91.10;;;;;;4887990;29;20040;-72
2021/01/23 04:06:09;;;;;;;10.53;5.40;;;3.60;91.00;;;;;;4880440;29;20039;-73
2021/01/23 04:08:35;;;;;;;10.07;5.50;;;3.60;91.00;;;;;;4883463;29;20025;-72
2021/01/23 04:11:00;;;;;;;13.57;5.60;;;3.60;91.00;;;;;;4893444;29;20032;-71
2021/01/23 04:13:26;;;;;;;10.67;5.13;;;3.60;91.00;;;;;;4897401;29;20032;-71
2021/01/23 04:15:55;;;;;;;8.83;4.90;;;3.60;91.00;;;;;;4897716;29;20040;-71
2021/01/23 04:18:21;;;;;;;8.60;4.57;;;3.60;91.10;;;;;;4880040;29;20045;-71
2021/01/23 04:20:46;;;;;;;10.07;5.37;;;3.60;91.00;;;;;;4880949;29;20573;-72
2021/01/23 04:23:12;;;;;;;8.83;4.17;;;3.60;90.90;;;;;;4896472;29;20048;-74
2021/01/23 04:25:38;;;;;;;8.13;4.60;;;3.50;90.90;;;;;;4899504;29;20044;-72
2021/01/23 04:28:04;;;;;;;7.40;4.10;;;3.50;90.90;;;;;;4899081;29;20108;-72
2021/01/23 04:30:29;;;;;;;9.33;4.40;;;3.50;90.80;;;;;;4882408;29;20545;-72
2021/01/23 04:32:55;;;;;;;8.60;4.00;;;3.50;91.00;;;;;;4910021;29;20024;-72
2021/01/23 04:35:20;;;;;;;6.90;4.30;;;3.40;91.00;;;;;;4887994;29;20044;-72
2021/01/23 04:37:46;;;;;;;5.40;3.57;;;3.40;91.00;;;;;;4903634;29;20477;-72
2021/01/23 04:40:13;;;;;;;6.47;3.70;;;3.40;90.90;;;;;;4912492;29;20068;-73
2021/01/23 04:42:42;;;;;;;6.40;3.40;;;3.40;91.00;;;;;;4899348;29;20025;-71
2021/01/23 04:45:10;;;;;;;6.13;3.70;;;3.40;90.90;;;;;;4899121;29;20043;-72
2021/01/23 04:47:36;;;;;;;4.83;3.00;;;3.40;91.00;;;;;;4887378;29;20112;-71
2021/01/23 04:50:07;;;;;;;4.63;2.77;;;3.40;91.00;;;;;;4910507;29;20115;-71
2021/01/23 04:52:40;;;;;;;5.73;2.57;;;3.40;91.00;;;;;;4908406;29;20036;-71
2021/01/23 04:55:08;;;;;;;4.43;2.60;;;3.40;90.90;;;;;;4916111;29;20063;-72
2021/01/23 04:57:33;;;;;;;5.50;2.83;;;3.40;90.90;;;;;;4897992;29;20070;-72
2021/01/23 04:59:59;;;;;;;3.70;2.50;;;3.50;90.90;;;;;;4898571;29;20065;-72
2021/01/23 05:02:25;;;;;;;3.07;2.20;;;3.50;90.80;;;;;;4898440;29;20466;-72
2021/01/23 05:05:00;;;;;;;4.30;2.30;;;3.50;90.70;;;;;;4898742;29;20040;-71
2021/01/23 05:07:34;;;;;;;3.10;1.97;;;3.50;90.70;;;;;;4910846;29;20032;-72
2021/01/23 05:10:23;;;;;;;3.60;2.17;;;3.60;90.70;;;;;;4885264;29;20032;-72
2021/01/23 05:12:56;;;;;;;3.57;1.97;;;3.50;90.50;;;;;;4861612;29;20032;-72
2021/01/23 05:15:26;;;;;;;2.60;1.63;;;3.60;90.50;;;;;;4878518;29;20063;-72
2021/01/23 05:17:54;;;;;;;2.77;1.57;;;3.60;90.40;;;;;;4915778;29;20040;-72
2021/01/23 05:20:42;;;;;;;3.00;1.70;;;3.60;90.40;;;;;;4898422;29;20036;-72
2021/01/23 05:23:21;;;;;;;2.43;1.50;;;3.60;90.40;;;;;;4898759;29;20114;-71
2021/01/23 05:25:57;;;;;;;3.03;1.60;;;3.60;90.20;;;;;;4903779;29;20092;-72
2021/01/23 05:28:37;;;;;;;2.77;1.57;;;3.60;90.10;;;;;;4895643;29;20025;-71
2021/01/23 05:31:05;;;;;;;3.37;1.60;;;3.70;90.10;;;;;;4898495;29;20028;-72
2021/01/23 05:33:32;;;;;;;2.40;1.33;;;3.70;90.10;;;;;;4888627;29;20035;-73
2021/01/23 05:36:09;;;;;;;1.90;1.30;;;3.70;90.00;;;;;;4893304;29;20083;-72
2021/01/23 05:38:37;;;;;;;1.90;1.40;;;3.70;89.80;;;;;;4897183;29;20076;-72
2021/01/23 05:41:08;;;;;;;2.13;1.50;;;3.80;89.80;;;;;;4880013;29;20466;-72
2021/01/23 05:43:48;;;;;;;2.10;1.20;;;3.80;89.40;;;;;;4896241;29;20024;-72
2021/01/23 05:46:14;;;;;;;2.20;1.20;;;3.80;89.20;;;;;;4887607;29;20033;-76
2021/01/23 05:48:45;;;;;;;2.30;1.13;;;3.80;89.30;;;;;;4879566;29;20039;-72
2021/01/23 05:51:12;;;;;;;2.40;1.63;;;3.80;89.30;;;;;;4879648;29;20044;-73
2021/01/23 05:53:38;;;;;;;1.97;1.30;;;3.80;89.00;;;;;;4895888;29;20039;-72
2021/01/23 05:56:04;;;;;;;1.50;0.97;;;3.80;89.30;;;;;;4879699;29;20115;-72
2021/01/23 05:58:35;;;;;;;1.90;1.03;;;3.80;89.30;;;;;;4879342;29;20067;-73
2021/01/23 06:01:21;;;;;;;1.63;1.10;;;3.80;89.00;;;;;;4882898;29;20036;-73
2021/01/23 06:03:49;;;;;;;1.20;0.87;;;3.90;88.80;;;;;;4882416;29;20036;-73
2021/01/23 06:06:14;;;;;;;0.93;0.80;;;3.80;88.70;;;;;;4897822;29;20032;-76
2021/01/23 06:08:42;;;;;;;1.00;0.80;;;3.90;88.40;;;;;;4914310;29;20080;-74
2021/01/23 06:11:19;;;;;;;1.30;0.90;;;3.90;88.60;;;;;;4899641;29;20108;-74
2021/01/23 06:13:48;;;;;;;1.60;0.93;;;3.90;88.40;;;;;;4900092;29;20117;-73
2021/01/23 06:16:33;;;;;;;1.97;1.00;;;3.90;88.40;;;;;;4883007;29;20032;-75
2021/01/23 06:19:04;;;;;;;3.00;1.07;;;3.90;88.10;;;;;;4890889;29;20059;-73
2021/01/23 06:21:42;;;;;;;1.00;0.80;;;4.00;88.10;;;;;;4918036;29;20053;-72
2021/01/23 06:24:07;;;;;;;1.13;0.80;;;4.00;87.60;;;;;;4901282;29;20040;-73
2021/01/23 06:26:53;;;;;;;2.50;1.03;;;4.00;87.30;;;;;;4915194;29;20205;-73
2021/01/23 06:29:32;;;;;;;3.50;1.27;;;4.00;87.90;;;;;;4881982;29;20104;-73
2021/01/23 06:32:17;;;;;;;5.73;1.40;;;4.00;87.40;;;;;;4882643;29;20028;-73
2021/01/23 06:34:58;;;;;;;3.77;1.17;;;4.10;87.30;;;;;;4864326;29;20127;-73
2021/01/23 06:37:30;;;;;;;1.47;1.00;;;4.00;86.80;;;;;;4880247;29;20025;-73
2021/01/23 06:39:56;;;;;;;1.33;0.87;;;4.00;87.00;;;;;;4863974;29;20029;-73
2021/01/23 06:42:25;;;;;;;1.67;1.07;;;4.10;87.40;;;;;;4882471;29;20032;-73
2021/01/23 06:44:51;;;;;;;2.40;0.93;;;4.10;87.20;;;;;;4918304;29;20049;-72
2021/01/23 06:47:16;;;;;;;3.23;1.80;;;4.00;86.60;;;;;;4892837;29;20032;-74
2021/01/23 06:49:43;;;;;;;1.73;1.20;;;4.10;86.90;;;;;;4881704;29;20043;-74
2021/01/23 06:52:08;;;;;;;1.37;1.13;;;4.10;86.70;;;;;;4881917;29;20043;-72
2021/01/23 06:54:35;;;;;;;1.47;0.93;;;4.10;87.40;;;;;;4901129;29;20028;-71
2021/01/23 06:57:02;;;;;;;2.73;1.37;;;4.10;86.70;;;;;;4918143;29;20051;-72
2021/01/23 06:59:30;;;;;;;1.37;1.17;;;4.10;86.40;;;;;;4900664;29;20130;-73
2021/01/23 07:02:06;;;;;;;2.73;1.10;;;4.10;86.50;;;;;;4887574;29;20029;-74
2021/01/23 07:04:35;;;;;;;1.70;1.40;;;4.10;86.30;;;;;;4897175;29;20040;-73
2021/01/23 07:07:06;;;;;;;1.63;1.17;;;4.10;85.80;;;;;;4905254;29;20068;-74
2021/01/23 07:09:49;;;;;;;4.68;1.50;;;4.10;86.20;;;;;;4900153;29;20032;-74
2021/01/23 07:12:39;;;;;;;1.10;1.00;;;4.10;86.10;;;;;;4900734;29;20040;-74
2021/01/23 07:15:06;;;;;;;1.87;1.00;;;4.10;85.90;;;;;;4900713;29;20553;-74
2021/01/23 07:17:44;;;;;;;1.37;0.93;;;4.20;86.70;;;;;;4906750;29;20104;-73
2021/01/23 07:20:12;;;;;;;2.03;1.27;;;4.20;85.70;;;;;;4898752;29;20044;-74
2021/01/23 07:22:39;;;;;;;2.93;1.17;;;4.20;85.90;;;;;;4909780;29;20099;-73
2021/01/23 07:25:06;;;;;;;2.50;1.20;;;4.10;86.10;;;;;;4917344;29;20047;-73
2021/01/23 07:27:34;;;;;;;2.00;1.30;;;4.20;85.90;;;;;;4906208;29;20477;-73
2021/01/23 07:30:00;;;;;;;1.90;1.40;;;4.10;86.10;;;;;;4881067;29;20029;-73
2021/01/23 07:32:39;;;;;;;1.80;1.47;;;4.20;86.10;;;;;;4888832;29;20028;-73
2021/01/23 07:35:06;;;;;;;2.87;1.60;;;4.20;86.10;;;;;;4900512;29;20032;-73
2021/01/23 07:37:58;;;;;;;2.43;1.10;;;4.20;85.90;;;;;;4899642;29;20049;-74
2021/01/23 07:40:29;;;;;;;1.88;1.00;;;4.20;85.60;;;;;;4899701;29;20024;-73
2021/01/23 07:42:57;;;;;;;1.90;1.42;;;4.20;85.70;;;;;;4895013;29;20044;-72
2021/01/23 07:45:26;;;;;;;2.43;1.93;;;4.20;85.30;;;;;;4907140;29;20060;-73
2021/01/23 07:47:59;;;;;;;2.13;1.27;;;4.20;85.20;;;;;;4900212;29;20028;-73
2021/01/23 07:50:25;;;;;;;2.60;1.40;;;4.20;85.30;;;;;;4898763;29;20036;-73
2021/01/23 07:52:51;;;;;;;1.97;1.30;;;4.20;85.50;;;;;;4886320;29;20040;-74
2021/01/23 07:55:17;;;;;;;2.37;1.30;;;4.20;85.40;;;;;;4906424;29;20142;-73
2021/01/23 07:58:05;;;;;;;3.30;2.13;;;4.30;85.30;;;;;;4916452;29;20111;-74
2021/01/23 08:00:31;;;;;;;2.20;1.70;;;4.30;85.20;;;;;;4896710;29;20127;-74
2021/01/23 08:02:58;;;;;;;2.10;1.40;;;4.30;85.10;;;;;;4886797;29;20107;-73
2021/01/23 08:05:40;;;;;;;2.53;1.50;;;4.30;85.40;;;;;;4899346;29;20040;-74
2021/01/23 08:08:05;;;;;;;2.33;1.23;;;4.30;85.40;;;;;;4899921;29;20382;-73
2021/01/23 08:10:35;;;;;;;2.53;1.37;;;4.30;84.80;;;;;;4895292;29;20107;-74
2021/01/23 08:13:03;;;;;;;1.80;1.20;;;4.30;84.60;;;;;;4897582;29;20454;-73
2021/01/23 08:15:38;;;;;;;2.60;1.47;;;4.20;84.90;;;;;;4890228;29;20028;-73
2021/01/23 08:18:18;;;;;;;4.83;1.50;;;4.30;85.10;;;;;;4916514;29;20083;-73
2021/01/23 08:20:44;;;;;;;3.03;1.53;;;4.30;85.20;;;;;;4898410;29;20470;-73
2021/01/23 08:23:13;;;;;;;2.93;1.67;;;4.30;85.40;;;;;;4896344;29;20057;-73
2021/01/23 08:25:46;;;;;;;2.43;1.57;;;4.30;85.20;;;;;;4891571;29;20099;-74
2021/01/23 08:28:14;;;;;;;3.00;1.80;;;4.30;85.40;;;;;;4895654;29;20103;-73
2021/01/23 08:30:40;;;;;;;4.17;2.00;;;4.30;85.00;;;;;;4859138;29;20026;-74
2021/01/23 08:33:08;;;;;;;2.40;1.77;;;4.30;84.90;;;;;;4860109;29;20041;-72
2021/01/23 08:35:36;;;;;;;3.33;1.70;;;4.40;85.00;;;;;;4878181;29;20179;-72
2021/01/23 08:38:02;;;;;;;4.77;2.00;;;4.30;85.20;;;;;;4882677;29;20033;-73
2021/01/23 08:40:27;;;;;;;2.33;1.50;;;4.40;85.20;;;;;;4889807;29;20410;-73
2021/01/23 08:42:53;;;;;;;2.80;1.70;;;4.50;85.20;;;;;;4889596;29;20036;-74
2021/01/23 08:45:21;;;;;;;2.93;1.90;;;4.50;84.60;;;;;;4876944;29;20051;-76
2021/01/23 08:47:47;;;;;;;2.87;1.67;;;4.50;84.70;;;;;;4879526;29;20498;-73
2021/01/23 08:50:14;;;;;;;5.27;1.90;;;4.60;85.00;;;;;;4875211;29;20045;-73
2021/01/23 08:52:39;;;;;;;5.20;2.27;;;4.60;84.50;;;;;;4876721;29;20238;-72
2021/01/23 08:55:05;;;;;;;3.57;2.10;;;4.60;84.70;;;;;;4883932;29;20542;-72
2021/01/23 08:57:32;;;;;;;4.80;2.30;;;4.70;84.40;;;;;;4890108;29;20390;-73
2021/01/23 08:59:58;;;;;;;4.47;2.20;;;4.70;84.20;;;;;;4895724;29;20463;-72
2021/01/23 09:02:23;;;;;;;2.37;1.70;;;4.70;84.60;;;;;;4906820;29;20119;-73
2021/01/23 09:04:49;;;;;;;3.87;2.10;;;4.70;84.80;;;;;;4877897;29;20427;-73
2021/01/23 09:07:15;;;;;;;3.23;1.80;;;4.60;84.50;;;;;;4888600;29;20033;-74
2021/01/23 09:09:40;;;;;;;2.93;1.70;;;4.60;84.60;;;;;;4867734;29;20034;-71
2021/01/23 09:12:06;;;;;;;3.50;1.77;;;4.70;85.00;;;;;;4881559;29;20481;-71
2021/01/23 09:14:33;;;;;;;2.87;2.00;;;4.60;85.10;;;;;;4884182;29;20036;-74
2021/01/23 09:16:58;;;;;;;4.80;2.20;;;4.70;84.80;;;;;;4865576;29;20025;-71
2021/01/23 09:19:24;;;;;;;5.43;2.17;;;4.70;84.90;;;;;;4879623;29;20471;-72
2021/01/23 09:21:50;;;;;;;3.93;2.10;;;4.80;84.50;;;;;;4876834;29;20053;-73
2021/01/23 09:24:15;;;;;;;3.30;2.13;;;4.80;84.10;;;;;;4876696;29;20494;-71
2021/01/23 09:26:42;;;;;;;2.93;2.00;;;4.80;83.90;;;;;;4882617;29;20031;-71
2021/01/23 09:29:08;;;;;;;3.40;2.00;;;4.90;83.40;;;;;;4890038;29;20037;-71
2021/01/23 09:31:34;;;;;;;3.87;2.27;;;4.90;83.60;;;;;;4876550;29;20029;-72
2021/01/23 09:33:59;;;;;;;4.13;2.20;;;4.80;84.20;;;;;;4877563;29;20045;-72
2021/01/23 09:36:26;;;;;;;4.27;2.00;;;4.90;84.70;;;;;;4881906;29;20028;-72
2021/01/23 09:38:52;;;;;;;4.67;2.33;;;4.90;83.80;;;;;;4878125;29;20089;-72
2021/01/23 09:41:17;;;;;;;2.97;1.97;;;5.00;84.00;;;;;;4888463;29;20076;-73
2021/01/23 09:43:43;;;;;;;3.30;2.30;;;5.00;84.10;;;;;;4880045;29;20029;-73
2021/01/23 09:46:09;;;;;;;5.97;2.23;;;5.10;83.80;;;;;;4880697;29;20423;-73
2021/01/23 09:48:34;;;;;;;4.10;2.13;;;5.10;83.40;;;;;;4887727;29;20481;-73
2021/01/23 09:51:00;;;;;;;3.10;1.77;;;5.20;83.90;;;;;;4895510;29;20025;-73
2021/01/23 09:53:26;;;;;;;2.30;1.50;;;5.20;83.80;;;;;;4889986;29;20025;-74
2021/01/23 09:55:52;;;;;;;3.10;1.70;;;5.40;83.10;;;;;;4887162;29;20041;-73
2021/01/23 09:58:18;;;;;;;2.90;1.60;;;5.50;82.10;;;;;;4895313;29;20025;-73
2021/01/23 10:00:46;;;;;;;5.40;1.63;;;5.70;82.30;;;;;;4883645;29;20048;-72
2021/01/23 10:03:11;;;;;;;5.83;1.67;;;5.80;81.20;;;;;;4890937;29;20026;-72
2021/01/23 10:05:37;;;;;;;4.90;1.60;;;5.90;81.10;;;;;;4886850;29;20793;-73
2021/01/23 10:08:03;;;;;;;3.10;1.30;;;5.90;80.60;;;;;;4893291;29;20036;-74
2021/01/23 10:10:28;;;;;;;2.73;1.40;;;6.00;79.40;;;;;;4893187;29;20509;-73
2021/01/23 10:12:54;;;;;;;23.07;10.37;;;6.00;79.70;;;;;;4884805;29;20035;-73
2021/01/23 10:15:20;;;;;;;11.47;4.17;;;6.10;79.80;;;;;;4888853;29;20503;-73
2021/01/23 10:17:46;;;;;;;3.00;1.73;;;6.10;79.80;;;;;;4883848;29;20150;-74
2021/01/23 10:20:12;;;;;;;3.27;1.57;;;6.10;78.70;;;;;;4873605;29;20037;-72
2021/01/23 10:22:37;;;;;;;2.17;1.37;;;6.10;78.80;;;;;;4883224;29;20395;-72
2021/01/23 10:25:05;;;;;;;4.23;1.20;;;6.20;79.50;;;;;;4892929;29;20475;-72
2021/01/23 10:27:30;;;;;;;2.20;1.20;;;6.20;78.70;;;;;;4888890;29;20025;-72
2021/01/23 10:29:56;;;;;;;2.40;1.43;;;6.20;78.50;;;;;;4879857;29;20093;-73
2021/01/23 10:32:22;;;;;;;2.40;1.50;;;6.20;77.80;;;;;;4892492;29;20089;-74
2021/01/23 10:34:47;;;;;;;3.80;1.60;;;6.20;78.20;;;;;;4884741;29;20111;-72
2021/01/23 10:37:13;;;;;;;3.87;1.30;;;6.30;77.90;;;;;;4890758;29;20034;-75
2021/01/23 10:39:39;;;;;;;5.73;1.13;;;6.30;77.60;;;;;;4874507;29;20033;-73
2021/01/23 10:42:05;;;;;;;3.87;1.50;;;6.30;78.00;;;;;;4873771;29;20441;-73
2021/01/23 10:44:30;;;;;;;4.67;1.50;;;6.30;78.40;;;;;;4877805;29;20061;-73
2021/01/23 10:46:56;;;;;;;2.27;1.27;;;6.30;77.70;;;;;;4877397;29;20370;-74
2021/01/23 10:49:21;;;;;;;3.47;1.30;;;6.20;78.00;;;;;;4872411;29;20041;-75
2021/01/23 10:51:48;;;;;;;2.23;1.47;;;6.20;77.60;;;;;;4880930;29;20376;-73
2021/01/23 10:54:14;;;;;;;1.57;1.10;;;6.30;77.50;;;;;;4895738;29;20025;-73
2021/01/23 10:56:39;;;;;;;3.03;1.40;;;6.40;77.80;;;;;;4881869;29;20033;-73
2021/01/23 10:59:05;;;;;;;2.93;1.20;;;6.50;76.50;;;;;;4890888;29;20033;-73
2021/01/23 11:01:31;;;;;;;3.10;1.53;;;6.50;76.70;;;;;;4888266;29;20037;-74
2021/01/23 11:03:57;;;;;;;2.17;1.53;;;6.50;77.00;;;;;;4884112;29;20494;-74
2021/01/23 11:06:24;;;;;;;11.53;1.60;;;6.50;75.90;;;;;;4894933;29;20116;-74
2021/01/23 11:08:50;;;;;;;5.47;1.70;;;6.50;76.60;;;;;;4883356;29;20052;-76
2021/01/23 11:11:16;;;;;;;6.70;1.40;;;6.60;77.00;;;;;;4889070;29;20060;-74
2021/01/23 11:13:42;;;;;;;3.27;1.10;;;6.60;76.00;;;;;;4889610;29;20035;-74
2021/01/23 11:16:08;;;;;;;5.10;1.30;;;6.60;76.10;;;;;;4898739;29;20426;-73
2021/01/23 11:18:35;;;;;;;3.30;1.23;;;6.70;75.60;;;;;;4880989;29;20028;-73
2021/01/23 11:21:04;;;;;;;3.70;1.20;;;6.60;75.70;;;;;;4892183;29;20033;-74
2021/01/23 11:23:30;;;;;;;5.90;1.30;;;6.60;76.10;;;;;;4898928;29;20036;-74
2021/01/23 11:25:56;;;;;;;6.70;1.30;;;6.70;75.90;;;;;;4886725;29;20040;-74
2021/01/23 11:28:21;;;;;;;6.97;1.30;;;6.70;75.90;;;;;;4913044;29;20035;-74
2021/01/23 11:30:49;;;;;;;3.67;0.97;;;6.70;75.40;;;;;;4885674;29;20024;-74
2021/01/23 11:33:15;;;;;;;2.97;1.00;;;6.70;75.80;;;;;;4894021;29;20028;-73
2021/01/23 11:35:41;;;;;;;3.07;1.17;;;6.70;75.10;;;;;;4888291;29;20119;-73
2021/01/23 11:38:07;;;;;;;3.43;1.20;;;6.70;75.00;;;;;;4896104;29;20048;-73
2021/01/23 11:40:35;;;;;;;1.83;1.00;;;6.80;75.30;;;;;;4883543;29;20785;-75
2021/01/23 11:43:01;;;;;;;4.70;1.10;;;6.80;74.80;;;;;;4893571;29;20036;-72
2021/01/23 11:45:26;;;;;;;4.13;1.20;;;6.90;74.10;;;;;;4907013;29;20032;-72
2021/01/23 11:47:52;;;;;;;3.37;0.97;;;7.00;74.60;;;;;;4903920;29;20029;-73
2021/01/23 11:50:18;;;;;;;5.97;1.27;;;7.10;75.00;;;;;;4896231;29;20482;-72
2021/01/23 11:52:43;;;;;;;5.90;1.20;;;7.20;74.10;;;;;;4901272;29;20024;-74
2021/01/23 11:55:09;;;;;;;2.57;1.13;;;7.20;74.20;;;;;;4892445;29;20037;-73
2021/01/23 11:57:35;;;;;;;1.80;0.90;;;7.20;73.40;;;;;;4891087;29;20470;-72
2021/01/23 12:00:04;;;;;;;2.13;1.03;;;7.20;73.70;;;;;;4885440;29;20111;-74
2021/01/23 12:02:29;;;;;;;2.40;1.03;;;7.20;73.10;;;;;;4895559;29;20462;-73
2021/01/23 12:04:55;;;;;;;1.83;1.00;;;7.20;73.30;;;;;;4886370;29;20040;-73
2021/01/23 12:07:21;;;;;;;1.77;0.97;;;7.30;72.30;;;;;;4889908;29;20432;-74
2021/01/23 12:09:46;;;;;;;3.10;1.20;;;7.30;72.30;;;;;;4909831;29;20070;-74
2021/01/23 12:12:12;;;;;;;4.33;1.00;;;7.30;71.70;;;;;;4884273;29;20033;-74
2021/01/23 12:14:38;;;;;;;2.40;1.07;;;7.30;72.10;;;;;;4912581;29;20562;-73
2021/01/23 12:17:04;;;;;;;3.20;1.10;;;7.30;72.20;;;;;;4880439;29;20478;-73
2021/01/23 12:19:29;;;;;;;1.70;0.80;;;7.40;72.40;;;;;;4880196;29;20036;-73
2021/01/23 12:21:55;;;;;;;3.07;0.80;;;7.40;72.00;;;;;;4884317;29;20468;-74
2021/01/23 12:24:22;;;;;;;3.60;1.10;;;7.40;72.50;;;;;;4894604;29;20474;-74
2021/01/23 12:26:47;;;;;;;3.47;1.33;;;7.30;70.70;;;;;;4891638;29;20024;-74
2021/01/23 12:29:14;;;;;;;6.23;1.10;;;7.30;71.00;;;;;;4885314;29;20076;-73
2021/01/23 12:31:39;;;;;;;4.80;0.80;;;7.20;71.20;;;;;;4885564;29;20033;-73
2021/01/23 12:34:05;;;;;;;1.77;1.00;;;7.20;71.30;;;;;;4893157;29;20515;-73
2021/01/23 12:36:31;;;;;;;2.40;0.83;;;7.20;72.10;;;;;;4880615;29;20033;-74
2021/01/23 12:38:56;;;;;;;2.93;1.10;;;7.20;72.50;;;;;;4887560;29;20479;-74
2021/01/23 12:41:22;;;;;;;3.00;1.00;;;7.20;72.30;;;;;;4890019;29;20499;-75
2021/01/23 12:43:48;;;;;;;3.13;0.83;;;7.20;71.90;;;;;;4885741;29;20040;-75
2021/01/23 12:46:14;;;;;;;3.67;1.00;;;7.20;71.60;;;;;;4881835;29;20463;-73
2021/01/23 12:48:40;;;;;;;48.87;21.20;;;7.30;71.70;;;;;;4885866;29;20040;-72
2021/01/23 12:51:06;;;;;;;10.40;4.30;;;7.30;72.20;;;;;;4886053;29;20039;-73
2021/01/23 12:53:32;;;;;;;5.30;1.57;;;7.30;71.90;;;;;;4880449;29;20029;-72
2021/01/23 12:55:57;;;;;;;3.97;1.20;;;7.40;71.70;;;;;;4888087;29;20051;-73
2021/01/23 12:58:23;;;;;;;2.53;0.83;;;7.40;71.20;;;;;;4887091;29;20040;-74
2021/01/23 13:00:49;;;;;;;3.53;1.30;;;7.50;71.40;;;;;;4896636;29;20036;-74